Time;durP1;ratioP1;P1;durP2;ratioP2;P2;SDS_P1;SDS_P2;PMS_P1;PMS_P2;Temp;Humidity;BMP_temperature;BMP_pressure;BME280_temperature;BME280_humidity;BME280_pressure;Samples;Min_cycle;Max_cycle;Signal;HPM_P1;HPM_P2
2023/02/16 05:04:10;;;;;;;10.02;6.10;;;-0.10;99.90;;;;;;5967506;22;20648;-64
2023/02/16 05:06:37;;;;;;;6.53;5.60;;;-0.10;99.90;;;;;;4979320;28;20200;-64
2023/02/16 05:09:04;;;;;;;9.32;6.22;;;0.00;99.90;;;;;;4975651;28;20272;-64
2023/02/16 05:14:43;;;;;;;7.57;5.70;;;-0.10;99.90;;;;;;4975059;28;20266;-64
2023/02/16 05:17:17;;;;;;;7.18;6.57;;;-0.10;99.90;;;;;;4975646;28;20184;-64
2023/02/16 05:19:45;;;;;;;7.88;7.07;;;-0.10;99.90;;;;;;4975592;28;20174;-64
2023/02/16 05:22:12;;;;;;;8.60;6.07;;;-0.20;99.90;;;;;;4975259;28;20554;-63
2023/02/16 05:24:38;;;;;;;7.50;6.80;;;-0.20;99.90;;;;;;4973498;28;20196;-64
2023/02/16 05:27:06;;;;;;;5.45;4.95;;;-0.10;99.90;;;;;;4975260;28;20188;-63
2023/02/16 05:29:32;;;;;;;9.30;7.00;;;-0.10;99.90;;;;;;4975124;28;20178;-63
2023/02/16 05:31:58;;;;;;;10.00;8.30;;;-0.10;99.90;;;;;;4975118;28;20287;-63
2023/02/16 05:34:24;;;;;;;11.55;7.75;;;-0.10;99.90;;;;;;4973917;28;20437;-63
2023/02/16 05:36:49;;;;;;;9.13;7.60;;;-0.10;99.90;;;;;;4975714;28;20601;-63
2023/02/16 05:39:15;;;;;;;10.17;8.07;;;-0.10;99.90;;;;;;4973969;28;20533;-63
2023/02/16 05:41:41;;;;;;;10.07;7.37;;;-0.10;99.90;;;;;;4975092;28;20411;-64
2023/02/16 05:44:07;;;;;;;11.73;6.83;;;-0.10;99.90;;;;;;4974595;28;20203;-64
2023/02/16 05:46:35;;;;;;;10.52;8.90;;;-0.20;99.90;;;;;;4974058;28;20651;-63
2023/02/16 05:49:02;;;;;;;11.55;7.50;;;-0.20;99.90;;;;;;4976262;28;20246;-64
2023/02/16 05:51:28;;;;;;;13.73;7.68;;;-0.20;99.90;;;;;;4975734;28;20573;-65
2023/02/16 05:53:54;;;;;;;9.65;6.28;;;-0.20;99.90;;;;;;4976007;28;20205;-64
2023/02/16 05:56:20;;;;;;;7.40;6.05;;;-0.30;99.90;;;;;;4975927;28;20189;-64
2023/02/16 05:58:46;;;;;;;11.45;7.60;;;-0.30;99.90;;;;;;4974630;28;20582;-64
2023/02/16 06:01:12;;;;;;;9.63;6.63;;;-0.40;99.90;;;;;;4974715;28;20266;-64
2023/02/16 06:03:38;;;;;;;13.88;7.43;;;-0.30;99.90;;;;;;4975115;28;20227;-64
2023/02/16 06:06:04;;;;;;;15.07;7.97;;;-0.40;99.90;;;;;;4973813;28;20661;-64
2023/02/16 06:08:31;;;;;;;10.82;7.53;;;-0.30;99.90;;;;;;4974222;28;20180;-64
2023/02/16 06:10:57;;;;;;;13.57;8.90;;;-0.30;99.90;;;;;;4974533;28;20253;-64
2023/02/16 06:13:23;;;;;;;14.30;8.18;;;-0.30;99.90;;;;;;4974363;28;20215;-65
2023/02/16 06:15:54;;;;;;;8.13;7.22;;;-0.30;99.90;;;;;;4974527;28;20188;-64
2023/02/16 06:18:20;;;;;;;15.77;8.05;;;-0.30;99.90;;;;;;4974722;28;20680;-65
2023/02/16 06:20:46;;;;;;;14.73;8.80;;;-0.40;99.90;;;;;;4974658;28;20180;-65
2023/02/16 06:23:13;;;;;;;10.67;9.10;;;-0.30;99.90;;;;;;4972897;28;20187;-64
2023/02/16 06:25:44;;;;;;;9.15;6.97;;;-0.20;99.90;;;;;;4974468;28;20198;-64
2023/02/16 06:28:10;;;;;;;14.35;8.48;;;-0.30;99.90;;;;;;4977592;28;20183;-63
2023/02/16 06:30:35;;;;;;;9.48;7.30;;;-0.20;99.90;;;;;;4978382;28;20199;-65
2023/02/16 06:33:03;;;;;;;14.33;8.10;;;-0.20;99.90;;;;;;4977855;28;20590;-64
2023/02/16 06:35:29;;;;;;;13.10;6.70;;;-0.20;99.90;;;;;;4978136;28;20239;-63
2023/02/16 06:37:55;;;;;;;10.77;6.57;;;-0.20;99.90;;;;;;4978171;28;20650;-63
2023/02/16 06:40:21;;;;;;;13.30;8.40;;;-0.10;99.90;;;;;;4978205;28;20219;-63
2023/02/16 06:42:46;;;;;;;12.53;7.37;;;-0.20;99.90;;;;;;4978037;28;20171;-64
2023/02/16 06:45:12;;;;;;;13.67;7.37;;;-0.10;99.90;;;;;;4977529;28;20431;-64
2023/02/16 06:47:38;;;;;;;12.37;8.03;;;-0.20;99.90;;;;;;4978025;28;20208;-63
2023/02/16 06:50:05;;;;;;;13.10;8.70;;;-0.10;99.90;;;;;;4977991;28;20210;-64
2023/02/16 06:52:31;;;;;;;14.45;9.75;;;-0.10;99.90;;;;;;4977664;28;20532;-63
2023/02/16 06:54:57;;;;;;;9.13;7.90;;;-0.10;99.90;;;;;;4977572;28;20613;-64
2023/02/16 06:57:23;;;;;;;8.85;7.55;;;0.00;99.90;;;;;;4977727;28;20211;-64
2023/02/16 06:59:48;;;;;;;10.27;8.23;;;0.00;99.90;;;;;;4977923;28;20172;-64
2023/02/16 07:02:14;;;;;;;10.77;6.17;;;0.00;99.90;;;;;;4977754;28;20634;-65
2023/02/16 07:04:39;;;;;;;14.37;9.10;;;0.10;99.90;;;;;;4976707;28;20529;-64
2023/02/16 07:07:05;;;;;;;10.00;7.47;;;0.10;99.90;;;;;;4977582;28;20194;-64
2023/02/16 07:09:31;;;;;;;14.97;8.60;;;0.10;99.90;;;;;;4977492;28;20176;-64
2023/02/16 07:11:57;;;;;;;11.40;8.10;;;0.10;99.90;;;;;;4978026;28;20200;-64
2023/02/16 07:14:22;;;;;;;18.38;10.40;;;0.20;99.90;;;;;;4977183;28;20324;-63
2023/02/16 07:16:48;;;;;;;11.60;9.13;;;0.30;99.90;;;;;;4974794;28;20271;-63
2023/02/16 07:19:14;;;;;;;10.47;7.10;;;0.40;99.90;;;;;;4958284;28;20203;-62
2023/02/16 07:21:39;;;;;;;7.67;6.23;;;0.50;99.90;;;;;;4958361;29;20696;-62
2023/02/16 07:24:06;;;;;;;13.40;8.30;;;0.60;99.90;;;;;;4957715;28;20536;-64
2023/02/16 07:26:32;;;;;;;13.90;8.15;;;0.80;99.90;;;;;;4958005;28;20423;-62
2023/02/16 07:28:57;;;;;;;12.43;9.80;;;1.00;99.90;;;;;;4957884;28;20254;-64
2023/02/16 07:31:26;;;;;;;9.20;7.80;;;1.10;99.90;;;;;;4957807;28;20444;-64
2023/02/16 07:33:52;;;;;;;12.20;10.93;;;1.40;99.90;;;;;;4957266;29;20176;-63
2023/02/16 07:36:18;;;;;;;13.27;9.30;;;1.50;99.90;;;;;;4957672;28;20177;-64
2023/02/16 07:38:44;;;;;;;12.30;8.13;;;1.70;99.90;;;;;;4956076;28;20417;-63
2023/02/16 07:41:10;;;;;;;16.70;10.18;;;1.90;99.90;;;;;;4957693;29;20512;-64
2023/02/16 07:43:37;;;;;;;22.20;11.50;;;2.20;99.90;;;;;;4957308;28;20223;-64
2023/02/16 07:46:03;;;;;;;15.52;10.77;;;2.60;99.90;;;;;;4957657;28;20183;-65
2023/02/16 07:48:28;;;;;;;12.13;10.83;;;3.10;99.90;;;;;;4957771;28;20181;-64
2023/02/16 07:50:54;;;;;;;11.70;10.50;;;3.50;99.90;;;;;;4970620;28;20267;-62
2023/02/16 07:53:19;;;;;;;12.13;9.10;;;3.90;99.90;;;;;;4978139;28;20181;-63
2023/02/16 07:55:45;;;;;;;12.87;9.30;;;4.40;99.90;;;;;;4978754;28;20191;-64
2023/02/16 07:58:26;;;;;;;11.27;8.43;;;4.80;99.90;;;;;;4960633;28;20223;-63
2023/02/16 08:01:10;;;;;;;12.02;9.13;;;5.20;99.90;;;;;;4957215;28;20183;-64
2023/02/16 08:03:36;;;;;;;11.23;6.70;;;5.60;99.90;;;;;;4957050;28;20191;-65
2023/02/16 08:06:03;;;;;;;11.02;7.00;;;6.10;99.90;;;;;;4962426;28;20569;-64
2023/02/16 08:08:29;;;;;;;8.35;7.47;;;6.50;99.90;;;;;;4974232;28;20541;-63
2023/02/16 08:10:54;;;;;;;7.43;6.10;;;7.30;99.90;;;;;;4975106;28;20207;-64
2023/02/16 08:13:20;;;;;;;7.20;6.43;;;8.10;99.90;;;;;;4975263;28;20413;-65
2023/02/16 08:15:46;;;;;;;8.30;6.43;;;9.10;99.90;;;;;;4975617;28;20206;-64
2023/02/16 08:18:12;;;;;;;11.67;8.47;;;9.90;99.90;;;;;;4976271;28;20969;-64
2023/02/16 08:20:37;;;;;;;10.30;7.97;;;10.60;99.90;;;;;;4976394;28;20181;-64
2023/02/16 08:23:04;;;;;;;10.13;8.60;;;11.40;99.80;;;;;;4975944;28;20174;-66
2023/02/16 08:25:32;;;;;;;9.17;8.00;;;12.10;96.70;;;;;;4976161;28;20255;-65
2023/02/16 08:27:59;;;;;;;8.50;7.80;;;12.60;94.40;;;;;;4976273;28;20411;-65
2023/02/16 08:30:25;;;;;;;9.00;7.67;;;12.90;94.40;;;;;;4976327;28;20477;-65
2023/02/16 08:32:52;;;;;;;9.63;8.63;;;13.30;93.80;;;;;;4975865;28;20404;-63
2023/02/16 08:35:18;;;;;;;11.77;8.27;;;13.70;93.00;;;;;;4976057;28;20443;-65
2023/02/16 08:37:43;;;;;;;11.43;7.90;;;14.20;91.90;;;;;;4976287;28;20501;-64
2023/02/16 08:40:09;;;;;;;9.43;8.40;;;14.60;91.20;;;;;;4976210;28;20466;-66
2023/02/16 08:42:36;;;;;;;10.53;9.10;;;15.00;90.10;;;;;;4975977;28;20208;-63
2023/02/16 08:45:03;;;;;;;9.77;7.80;;;15.40;88.80;;;;;;4975059;28;20436;-63
2023/02/16 08:47:29;;;;;;;8.50;7.80;;;15.60;86.40;;;;;;4975659;28;20464;-63
2023/02/16 08:49:55;;;;;;;9.00;8.10;;;15.60;86.80;;;;;;4975331;28;20504;-63
2023/02/16 08:52:21;;;;;;;9.53;8.50;;;16.00;86.60;;;;;;4975411;28;20912;-65
2023/02/16 08:54:47;;;;;;;9.73;8.60;;;16.50;84.60;;;;;;4975250;28;20279;-63
2023/02/16 08:57:12;;;;;;;9.77;8.63;;;16.80;82.70;;;;;;4975726;28;20627;-64
2023/02/16 08:59:38;;;;;;;10.37;8.17;;;17.00;81.50;;;;;;4975525;28;20471;-65
2023/02/16 09:02:03;;;;;;;11.90;9.57;;;17.20;80.80;;;;;;4975606;28;20182;-63
2023/02/16 09:04:29;;;;;;;10.90;7.40;;;17.30;81.30;;;;;;4975250;28;20204;-66
2023/02/16 09:06:56;;;;;;;9.90;8.40;;;17.60;81.10;;;;;;4975344;28;20209;-65
2023/02/16 09:09:22;;;;;;;12.70;8.43;;;18.10;79.80;;;;;;4975419;28;20430;-64
2023/02/16 09:11:48;;;;;;;9.17;8.20;;;18.50;78.30;;;;;;4975483;28;20435;-64
2023/02/16 09:14:16;;;;;;;10.33;8.40;;;18.90;78.10;;;;;;4973935;28;20211;-63
2023/02/16 09:16:44;;;;;;;9.20;8.00;;;19.40;75.10;;;;;;4975352;28;20231;-65
2023/02/16 09:19:12;;;;;;;9.57;8.63;;;19.50;75.20;;;;;;4975179;28;20390;-63
2023/02/16 09:21:39;;;;;;;9.27;8.30;;;19.70;73.10;;;;;;4973691;28;20497;-65
2023/02/16 09:24:05;;;;;;;9.00;8.17;;;19.90;73.40;;;;;;4974751;28;20768;-66
2023/02/16 09:26:37;;;;;;;9.77;8.07;;;20.20;72.20;;;;;;4975228;28;20411;-65
2023/02/16 09:29:03;;;;;;;10.30;8.10;;;20.30;71.30;;;;;;4975139;28;20775;-64
2023/02/16 09:31:32;;;;;;;10.70;8.50;;;20.50;70.70;;;;;;4974770;28;20438;-63
2023/02/16 09:34:15;;;;;;;10.10;8.27;;;20.70;70.20;;;;;;4974297;28;20492;-64
2023/02/16 09:36:42;;;;;;;12.17;8.70;;;20.90;69.70;;;;;;4975099;28;20426;-65
2023/02/16 09:39:08;;;;;;;10.17;8.50;;;21.00;69.10;;;;;;4973521;28;20394;-64
2023/02/16 09:42:02;;;;;;;12.80;9.10;;;21.10;68.30;;;;;;4975064;28;20813;-64
2023/02/16 09:45:15;;;;;;;10.07;8.87;;;21.20;66.50;;;;;;4974438;28;20406;-62
2023/02/16 09:47:43;;;;;;;10.30;8.17;;;21.00;67.20;;;;;;4961918;28;20461;-63
2023/02/16 09:50:18;;;;;;;9.27;8.00;;;21.00;67.30;;;;;;4974902;28;20829;-65
2023/02/16 09:52:48;;;;;;;9.77;8.53;;;21.00;67.50;;;;;;4975120;28;20725;-64
2023/02/16 09:55:16;;;;;;;11.77;8.43;;;21.20;66.40;;;;;;4974344;28;20422;-64
2023/02/16 09:58:06;;;;;;;9.40;8.40;;;21.30;66.20;;;;;;4973543;28;20448;-64
2023/02/16 10:00:32;;;;;;;11.17;9.03;;;21.60;66.10;;;;;;4974185;28;20386;-64
2023/02/16 10:03:17;;;;;;;12.03;8.40;;;21.70;63.50;;;;;;4973594;28;20928;-64
2023/02/16 10:05:51;;;;;;;8.13;7.30;;;21.70;65.10;;;;;;4973019;28;20716;-64
2023/02/16 10:08:31;;;;;;;8.23;7.47;;;21.90;64.70;;;;;;4974717;28;20397;-64
2023/02/16 10:11:36;;;;;;;9.20;8.10;;;21.90;64.10;;;;;;4974189;28;20846;-64
2023/02/16 10:13:57;;;;;;;8.73;7.90;;;21.90;64.10;;;;;;4973840;28;20963;-64
2023/02/16 10:16:31;;;;;;;11.60;8.83;;;22.10;63.90;;;;;;4974406;28;20411;-64
2023/02/16 10:18:59;;;;;;;13.73;7.00;;;22.10;63.50;;;;;;4974655;28;20382;-64
2023/02/16 10:21:28;;;;;;;8.93;7.27;;;22.00;64.20;;;;;;4974591;28;20396;-64
2023/02/16 10:24:02;;;;;;;9.80;6.03;;;22.10;62.60;;;;;;4974005;28;20422;-63
2023/02/16 10:26:46;;;;;;;8.13;5.57;;;22.10;61.50;;;;;;4974509;28;20477;-64
2023/02/16 10:29:19;;;;;;;8.90;6.47;;;21.90;60.90;;;;;;4974455;28;20816;-63
2023/02/16 10:31:55;;;;;;;7.07;5.70;;;21.90;61.10;;;;;;4973780;28;20442;-63
2023/02/16 10:34:49;;;;;;;8.60;5.90;;;21.90;61.10;;;;;;4972631;28;20545;-62
2023/02/16 10:37:31;;;;;;;7.90;6.57;;;21.80;60.00;;;;;;4974437;28;20741;-62
2023/02/16 10:40:16;;;;;;;5.83;4.90;;;21.80;61.60;;;;;;4974235;28;20402;-64
2023/02/16 10:42:50;;;;;;;7.67;5.87;;;22.00;60.80;;;;;;4972945;28;20386;-63
2023/02/16 10:45:16;;;;;;;5.93;4.97;;;22.20;59.60;;;;;;4973909;28;20424;-65
2023/02/16 10:47:44;;;;;;;4.80;4.40;;;22.30;59.60;;;;;;4973742;28;20382;-63
2023/02/16 10:50:21;;;;;;;6.60;5.70;;;22.50;59.70;;;;;;4974166;28;20180;-62
2023/02/16 10:52:48;;;;;;;5.73;5.00;;;22.50;59.20;;;;;;4973971;28;20408;-64
2023/02/16 10:55:14;;;;;;;5.47;4.50;;;22.60;59.30;;;;;;4973740;28;20778;-63
2023/02/16 10:57:41;;;;;;;6.30;4.70;;;22.50;58.60;;;;;;4974179;28;20408;-63
2023/02/16 11:00:11;;;;;;;5.67;5.13;;;22.20;58.50;;;;;;4974120;28;20757;-64
2023/02/16 11:02:50;;;;;;;6.07;5.00;;;21.90;59.10;;;;;;4973552;28;20386;-63
2023/02/16 11:05:32;;;;;;;5.20;4.70;;;21.70;58.90;;;;;;4973805;28;20426;-64
2023/02/16 11:08:00;;;;;;;8.13;4.80;;;21.50;59.40;;;;;;4974071;28;20389;-64
2023/02/16 11:10:42;;;;;;;6.30;5.23;;;21.70;59.80;;;;;;4972372;28;20844;-63
2023/02/16 11:13:22;;;;;;;5.23;4.73;;;21.80;59.00;;;;;;4975114;28;20377;-64
2023/02/16 11:15:53;;;;;;;5.30;4.80;;;21.90;59.10;;;;;;4977536;28;20448;-62
2023/02/16 11:18:39;;;;;;;5.87;4.57;;;21.90;58.70;;;;;;4977435;28;20401;-66
2023/02/16 11:21:07;;;;;;;10.47;6.77;;;21.90;59.00;;;;;;4977572;28;20426;-63
2023/02/16 11:23:39;;;;;;;6.70;5.03;;;21.80;59.00;;;;;;4975800;28;20427;-64
2023/02/16 11:26:04;;;;;;;5.70;4.40;;;21.60;58.60;;;;;;4977038;28;20982;-63
2023/02/16 11:28:35;;;;;;;6.83;4.80;;;21.20;58.50;;;;;;4976128;28;20413;-64
2023/02/16 11:31:24;;;;;;;6.43;5.20;;;20.40;58.20;;;;;;4977238;28;20192;-63
2023/02/16 11:34:30;;;;;;;3.93;3.57;;;19.50;59.10;;;;;;4976208;28;20436;-62
2023/02/16 11:37:13;;;;;;;3.93;3.60;;;18.60;61.00;;;;;;4976224;28;20386;-64
2023/02/16 11:39:46;;;;;;;6.20;4.60;;;17.80;60.60;;;;;;4977074;28;20837;-63
2023/02/16 11:42:32;;;;;;;4.87;4.40;;;17.20;63.00;;;;;;4976632;28;20511;-63
2023/02/16 11:45:00;;;;;;;5.00;4.50;;;16.70;64.30;;;;;;4975241;28;20410;-63
2023/02/16 11:47:34;;;;;;;4.97;4.10;;;16.20;65.40;;;;;;4976965;28;20482;-63
2023/02/16 11:50:27;;;;;;;6.00;4.93;;;15.90;65.40;;;;;;4977035;28;20421;-63
2023/02/16 11:53:08;;;;;;;4.70;4.30;;;15.70;66.80;;;;;;4976820;28;20426;-63
2023/02/16 11:55:35;;;;;;;6.70;4.90;;;15.50;67.00;;;;;;4976803;28;20528;-62
2023/02/16 11:58:21;;;;;;;5.90;4.57;;;15.40;67.70;;;;;;4976895;28;20569;-63
2023/02/16 12:01:08;;;;;;;7.50;4.43;;;15.10;69.20;;;;;;4976959;28;20723;-62
2023/02/16 12:03:49;;;;;;;5.50;4.57;;;15.00;69.70;;;;;;4976143;28;20886;-64
2023/02/16 12:06:33;;;;;;;4.40;4.00;;;14.80;70.20;;;;;;4976501;28;20436;-63
2023/02/16 12:09:21;;;;;;;4.03;3.50;;;14.70;70.50;;;;;;4976704;28;20470;-63
2023/02/16 12:12:01;;;;;;;4.70;3.80;;;14.80;70.80;;;;;;4976259;28;20459;-64
2023/02/16 12:14:49;;;;;;;5.90;5.17;;;14.80;70.80;;;;;;4976031;28;20454;-63
2023/02/16 12:17:26;;;;;;;4.80;4.10;;;14.90;71.80;;;;;;4976562;28;20406;-63
2023/02/16 12:19:59;;;;;;;7.63;5.00;;;14.90;71.10;;;;;;4976546;28;20385;-63
2023/02/16 12:22:50;;;;;;;7.03;5.17;;;14.80;71.10;;;;;;4976378;28;20401;-63
2023/02/16 12:25:36;;;;;;;7.00;4.20;;;14.80;71.20;;;;;;4974904;28;20941;-64
2023/02/16 12:28:37;;;;;;;6.13;4.37;;;14.80;71.90;;;;;;4976001;28;20759;-64
2023/02/16 12:31:23;;;;;;;7.00;5.20;;;14.80;72.60;;;;;;4976072;28;20452;-63
2023/02/16 12:34:07;;;;;;;6.27;4.10;;;14.80;71.80;;;;;;4975800;28;20407;-62
2023/02/16 12:36:49;;;;;;;4.87;4.23;;;14.90;72.90;;;;;;4976183;28;20786;-64
2023/02/16 12:39:22;;;;;;;7.30;4.60;;;15.00;73.60;;;;;;4976077;28;20818;-63
2023/02/16 12:41:54;;;;;;;4.90;4.03;;;15.10;72.80;;;;;;4976046;28;20412;-65
2023/02/16 12:44:44;;;;;;;4.73;3.90;;;15.10;71.90;;;;;;4975482;28;20483;-64
2023/02/16 12:47:15;;;;;;;6.00;3.53;;;15.10;71.70;;;;;;4975725;28;20428;-63
2023/02/16 12:49:54;;;;;;;6.27;4.63;;;15.00;71.40;;;;;;4975897;28;20412;-64
2023/02/16 12:52:37;;;;;;;5.77;4.00;;;15.10;71.60;;;;;;4975628;28;21051;-62
2023/02/16 12:55:32;;;;;;;5.30;4.17;;;15.20;72.70;;;;;;4975333;28;20435;-64
2023/02/16 12:58:13;;;;;;;7.53;6.43;;;15.30;72.60;;;;;;4975912;28;20437;-64
2023/02/16 13:00:49;;;;;;;6.83;4.50;;;15.40;72.50;;;;;;4975738;28;20433;-64
2023/02/16 13:03:45;;;;;;;5.47;3.87;;;15.40;71.80;;;;;;4974885;28;20826;-64
2023/02/16 13:06:14;;;;;;;5.87;4.40;;;15.50;71.80;;;;;;4975378;28;20428;-63
2023/02/16 13:08:43;;;;;;;6.90;4.37;;;15.60;71.00;;;;;;4975572;28;20416;-64
2023/02/16 13:11:13;;;;;;;6.30;4.60;;;15.60;70.80;;;;;;4975346;28;20539;-64
2023/02/16 13:13:40;;;;;;;6.53;4.97;;;15.60;70.90;;;;;;4975046;28;20483;-64
2023/02/16 13:16:26;;;;;;;6.47;4.30;;;15.50;70.40;;;;;;4975132;28;20870;-64
2023/02/16 13:18:55;;;;;;;7.80;4.63;;;15.40;70.50;;;;;;4975361;28;20503;-64
2023/02/16 13:21:51;;;;;;;6.03;4.67;;;15.30;71.00;;;;;;4975402;28;20863;-63
2023/02/16 13:24:25;;;;;;;5.93;4.60;;;15.20;71.30;;;;;;4974991;28;20431;-62
2023/02/16 13:26:57;;;;;;;4.37;3.60;;;15.20;71.50;;;;;;4975420;28;20767;-63
2023/02/16 13:29:40;;;;;;;6.40;4.23;;;15.20;73.10;;;;;;4975073;28;20417;-62
2023/02/16 13:32:17;;;;;;;8.27;5.17;;;15.10;73.40;;;;;;4973947;28;20532;-63
2023/02/16 13:35:01;;;;;;;5.17;4.57;;;15.20;73.30;;;;;;4973549;28;20480;-62
2023/02/16 13:37:54;;;;;;;9.07;4.63;;;15.10;72.70;;;;;;4974856;28;20376;-63
2023/02/16 13:40:45;;;;;;;4.33;3.57;;;15.00;73.30;;;;;;4974982;28;20460;-64
2023/02/16 13:43:30;;;;;;;8.37;5.17;;;14.90;73.70;;;;;;4974661;28;20400;-66
2023/02/16 13:45:57;;;;;;;5.53;4.00;;;14.80;74.30;;;;;;4974634;28;20416;-64
2023/02/16 13:48:27;;;;;;;7.53;3.77;;;14.80;75.10;;;;;;4974937;28;20921;-64
2023/02/16 13:51:02;;;;;;;5.30;3.30;;;14.80;75.60;;;;;;4974070;28;20436;-64
2023/02/16 13:53:40;;;;;;;6.97;4.20;;;14.70;76.60;;;;;;4974187;28;20433;-64
2023/02/16 13:56:20;;;;;;;7.90;4.77;;;14.70;76.60;;;;;;4974890;28;20386;-65
2023/02/16 13:58:46;;;;;;;15.43;4.97;;;14.50;75.90;;;;;;4974527;28;20495;-63
2023/02/16 14:01:30;;;;;;;10.20;5.47;;;14.50;75.90;;;;;;4974750;28;20504;-65
2023/02/16 14:04:00;;;;;;;5.47;4.40;;;14.40;75.80;;;;;;4973646;28;20510;-63
2023/02/16 14:06:32;;;;;;;11.50;4.73;;;14.40;76.10;;;;;;4974744;28;20525;-64
2023/02/16 14:09:12;;;;;;;5.13;4.37;;;14.40;76.40;;;;;;4974557;28;20399;-62
2023/02/16 14:11:51;;;;;;;6.03;4.00;;;14.40;76.50;;;;;;4974777;28;20455;-63
2023/02/16 14:14:32;;;;;;;7.00;4.40;;;14.50;76.90;;;;;;4974116;28;20427;-63
2023/02/16 14:17:22;;;;;;;8.17;5.50;;;14.50;77.00;;;;;;4958975;28;20497;-62
2023/02/16 14:19:59;;;;;;;6.37;4.70;;;14.60;77.80;;;;;;4974701;28;20399;-63
2023/02/16 14:22:39;;;;;;;6.57;5.13;;;14.60;78.30;;;;;;4973832;28;20479;-61
2023/02/16 14:25:26;;;;;;;8.17;4.90;;;14.70;78.70;;;;;;4973978;28;20839;-64
2023/02/16 14:28:05;;;;;;;9.43;5.17;;;14.70;78.90;;;;;;4974356;28;20458;-64
2023/02/16 14:31:10;;;;;;;7.57;5.00;;;14.80;78.30;;;;;;4974206;28;20951;-63
2023/02/16 14:33:41;;;;;;;7.17;5.70;;;14.80;78.50;;;;;;4974102;28;20411;-62
2023/02/16 14:36:15;;;;;;;4.87;4.00;;;14.80;78.70;;;;;;4973139;28;20495;-62
2023/02/16 14:38:41;;;;;;;9.17;5.07;;;14.90;78.80;;;;;;4973848;28;20866;-63
2023/02/16 14:41:22;;;;;;;6.03;4.87;;;15.00;78.80;;;;;;4974353;28;20374;-63
2023/02/16 14:44:08;;;;;;;7.20;5.10;;;15.00;79.40;;;;;;4974444;28;20184;-64
2023/02/16 14:46:55;;;;;;;6.03;5.37;;;15.10;79.00;;;;;;4974493;28;20429;-64
2023/02/16 14:50:08;;;;;;;9.43;5.23;;;15.20;79.20;;;;;;4977665;28;20426;-63
2023/02/16 14:52:36;;;;;;;6.63;4.33;;;15.20;79.10;;;;;;4978034;28;20805;-65
2023/02/16 14:55:28;;;;;;;5.97;4.37;;;15.10;79.80;;;;;;4977312;28;20406;-64
2023/02/16 14:58:01;;;;;;;9.03;4.40;;;15.10;80.20;;;;;;4977981;28;20804;-64
2023/02/16 15:00:27;;;;;;;10.77;5.63;;;15.10;80.80;;;;;;4978028;28;20459;-63
2023/02/16 15:02:57;;;;;;;5.57;5.00;;;15.10;80.40;;;;;;4977603;28;20917;-65
2023/02/16 15:05:28;;;;;;;4.77;4.20;;;15.10;80.80;;;;;;4977748;28;20441;-64
2023/02/16 15:08:02;;;;;;;6.30;4.70;;;15.10;80.80;;;;;;4977824;28;20475;-64
2023/02/16 15:10:29;;;;;;;3.83;3.43;;;15.10;81.20;;;;;;4977714;28;20895;-64
2023/02/16 15:12:55;;;;;;;4.53;4.13;;;15.20;81.20;;;;;;4977507;28;20442;-64
2023/02/16 15:15:44;;;;;;;6.03;4.60;;;15.20;80.90;;;;;;4977421;28;20433;-63
2023/02/16 15:18:17;;;;;;;6.20;5.13;;;15.20;80.70;;;;;;4977795;28;20755;-64
2023/02/16 15:20:45;;;;;;;5.70;4.97;;;15.30;80.90;;;;;;4977584;28;20412;-64
2023/02/16 15:23:23;;;;;;;4.83;4.33;;;15.30;80.90;;;;;;4977182;28;20508;-64
2023/02/16 15:26:18;;;;;;;12.43;4.80;;;15.30;81.00;;;;;;4976074;28;20442;-63
2023/02/16 15:29:00;;;;;;;7.03;4.23;;;15.30;81.20;;;;;;4977244;28;20423;-65
2023/02/16 15:31:35;;;;;;;7.30;4.67;;;15.20;81.00;;;;;;4977377;28;20471;-65
2023/02/16 15:34:06;;;;;;;6.67;4.77;;;15.20;80.90;;;;;;4977010;28;20502;-63
2023/02/16 15:36:37;;;;;;;7.00;4.10;;;15.10;80.90;;;;;;4976929;28;20416;-63
2023/02/16 15:39:29;;;;;;;6.97;5.10;;;15.10;81.10;;;;;;4977290;28;20423;-63
2023/02/16 15:42:19;;;;;;;9.03;4.67;;;15.00;81.20;;;;;;4977191;28;20429;-64
2023/02/16 15:44:46;;;;;;;5.30;4.13;;;14.90;81.30;;;;;;4976525;28;20529;-64
2023/02/16 15:47:23;;;;;;;7.63;5.30;;;14.80;81.60;;;;;;4974002;28;20423;-63
2023/02/16 15:49:49;;;;;;;8.17;5.60;;;14.80;82.60;;;;;;4972666;28;20764;-63
2023/02/16 15:52:33;;;;;;;5.90;4.60;;;14.70;81.80;;;;;;4976660;28;20809;-65
2023/02/16 15:55:01;;;;;;;5.43;4.90;;;14.60;82.20;;;;;;4975049;28;20475;-64
2023/02/16 15:57:34;;;;;;;5.10;4.13;;;14.50;82.60;;;;;;4976754;28;20456;-64
2023/02/16 16:00:07;;;;;;;8.43;4.77;;;14.40;82.90;;;;;;4976778;28;20473;-65
2023/02/16 16:02:40;;;;;;;7.00;4.80;;;14.30;83.40;;;;;;4977006;28;20487;-63
2023/02/16 16:05:20;;;;;;;8.40;5.20;;;14.30;84.00;;;;;;4972380;28;20427;-64
2023/02/16 16:07:46;;;;;;;7.30;5.13;;;14.20;84.20;;;;;;4976590;28;20849;-64
2023/02/16 16:10:19;;;;;;;5.03;4.50;;;14.10;84.40;;;;;;4976804;28;20419;-63
2023/02/16 16:12:46;;;;;;;6.60;4.60;;;14.10;84.60;;;;;;4976705;28;20462;-64
2023/02/16 16:15:21;;;;;;;8.17;4.23;;;14.00;84.80;;;;;;4976274;28;20430;-64
2023/02/16 16:17:49;;;;;;;7.60;4.80;;;14.00;85.30;;;;;;4976163;28;20401;-64
2023/02/16 16:20:20;;;;;;;6.67;4.57;;;14.00;85.60;;;;;;4976256;28;20997;-66
2023/02/16 16:22:54;;;;;;;8.40;5.27;;;13.90;86.00;;;;;;4976386;28;20550;-62
2023/02/16 16:25:35;;;;;;;6.20;5.10;;;13.80;86.20;;;;;;4974972;28;20809;-64
2023/02/16 16:28:06;;;;;;;10.90;5.83;;;13.70;86.90;;;;;;4976502;28;20393;-64
2023/02/16 16:30:34;;;;;;;5.17;4.60;;;13.60;87.40;;;;;;4975869;28;20409;-65
2023/02/16 16:33:05;;;;;;;7.90;5.00;;;13.50;87.60;;;;;;4974997;28;20948;-64
2023/02/16 16:35:33;;;;;;;8.30;5.90;;;13.50;87.80;;;;;;4976116;28;20447;-65
2023/02/16 16:37:59;;;;;;;6.57;5.10;;;13.50;88.00;;;;;;4976121;28;20511;-64
2023/02/16 16:40:31;;;;;;;5.70;3.93;;;13.40;88.10;;;;;;4975930;28;20490;-65
2023/02/16 16:43:03;;;;;;;6.00;4.03;;;13.30;88.00;;;;;;4957004;28;20412;-68
2023/02/16 16:45:39;;;;;;;6.87;4.00;;;13.30;88.30;;;;;;4973520;28;20578;-64
2023/02/16 16:48:40;;;;;;;6.23;5.17;;;13.30;88.60;;;;;;4975992;28;20407;-63
2023/02/16 16:51:34;;;;;;;6.27;4.90;;;13.20;89.00;;;;;;4972755;28;20465;-64
2023/02/16 16:54:05;;;;;;;11.70;5.13;;;13.10;89.00;;;;;;4956193;28;20523;-64
2023/02/16 16:56:36;;;;;;;7.03;4.10;;;13.10;89.40;;;;;;4956347;28;20416;-65
2023/02/16 16:59:03;;;;;;;5.87;4.47;;;13.10;89.60;;;;;;4956360;28;20408;-63
2023/02/16 17:01:29;;;;;;;4.77;4.23;;;13.00;89.50;;;;;;4956529;28;20460;-63
2023/02/16 17:03:55;;;;;;;8.00;4.73;;;13.00;89.30;;;;;;4963113;28;20953;-62
2023/02/16 17:06:21;;;;;;;4.30;3.90;;;13.00;89.20;;;;;;4960184;28;20447;-63
2023/02/16 17:08:47;;;;;;;7.67;5.40;;;12.90;89.50;;;;;;4975306;28;20983;-64
2023/02/16 17:11:24;;;;;;;7.07;5.47;;;12.90;89.10;;;;;;4974841;28;20462;-61
2023/02/16 17:13:50;;;;;;;5.87;5.07;;;12.80;89.30;;;;;;4964726;28;20582;-63
2023/02/16 17:16:31;;;;;;;3.90;3.60;;;12.80;89.80;;;;;;4975248;28;20422;-66
2023/02/16 17:18:57;;;;;;;3.37;3.07;;;12.80;89.80;;;;;;4973470;28;20430;-63
2023/02/16 17:21:23;;;;;;;4.20;3.80;;;12.70;89.70;;;;;;4973601;28;20477;-61
2023/02/16 17:23:49;;;;;;;3.67;3.37;;;12.70;89.70;;;;;;4969236;28;20517;-62
2023/02/16 17:26:15;;;;;;;5.17;4.00;;;12.60;89.50;;;;;;4955659;28;20418;-61
2023/02/16 17:28:40;;;;;;;4.40;2.77;;;12.60;89.70;;;;;;4955582;28;20751;-63
2023/02/16 17:31:07;;;;;;;5.50;3.13;;;12.60;89.60;;;;;;4962401;28;20446;-62
2023/02/16 17:33:33;;;;;;;4.73;3.50;;;12.60;89.20;;;;;;4974291;28;20266;-63
2023/02/16 17:36:01;;;;;;;3.93;3.57;;;12.60;89.10;;;;;;4969808;28;20514;-61
2023/02/16 17:38:27;;;;;;;8.60;3.90;;;12.50;89.10;;;;;;4955473;28;20172;-63
2023/02/16 17:40:54;;;;;;;7.57;5.80;;;12.50;88.60;;;;;;4955492;28;20711;-62
2023/02/16 17:43:22;;;;;;;4.83;3.80;;;12.50;89.10;;;;;;4955010;28;20579;-62
2023/02/16 17:45:49;;;;;;;3.50;2.90;;;12.50;87.90;;;;;;4961477;28;20473;-62
2023/02/16 17:48:26;;;;;;;3.47;2.90;;;12.50;87.60;;;;;;4973350;28;20465;-62
2023/02/16 17:50:52;;;;;;;3.37;2.73;;;12.50;87.50;;;;;;4971017;28;20919;-64
2023/02/16 17:53:20;;;;;;;2.83;2.60;;;12.40;87.60;;;;;;4983897;28;20491;-64
2023/02/16 17:55:48;;;;;;;3.30;2.40;;;12.40;87.70;;;;;;4967246;28;20465;-62
2023/02/16 17:58:14;;;;;;;3.90;3.53;;;12.40;88.10;;;;;;4965360;28;20769;-62
2023/02/16 18:00:41;;;;;;;4.93;3.30;;;12.40;87.90;;;;;;4964241;28;20410;-64
2023/02/16 18:03:08;;;;;;;6.67;4.60;;;12.40;88.40;;;;;;4963863;28;20437;-61
2023/02/16 18:05:34;;;;;;;4.23;3.10;;;12.30;89.00;;;;;;4965095;28;20450;-62
2023/02/16 18:08:00;;;;;;;3.63;3.33;;;12.30;89.00;;;;;;4962373;28;20502;-62
2023/02/16 18:10:31;;;;;;;3.40;2.80;;;12.20;88.40;;;;;;4963004;28;20502;-62
2023/02/16 18:12:57;;;;;;;3.53;2.93;;;12.30;88.20;;;;;;4962252;28;20199;-67
2023/02/16 18:15:22;;;;;;;3.57;3.27;;;12.20;88.00;;;;;;4954858;28;20793;-61
2023/02/16 18:17:48;;;;;;;3.80;3.13;;;12.20;88.10;;;;;;4955018;29;20170;-62
2023/02/16 18:20:15;;;;;;;5.80;2.90;;;12.20;88.10;;;;;;4955311;29;20180;-62